Time;durP1;ratioP1;P1;durP2;ratioP2;P2;SDS_P1;SDS_P2;PMS_P1;PMS_P2;Temp;Humidity;BMP_temperature;BMP_pressure;BME280_temperature;BME280_humidity;BME280_pressure;Samples;Min_cycle;Max_cycle;Signal;HPM_P1;HPM_P2
2023/03/25 00:00:59;;;;;;;3.20;1.20;;;10.30;96.30;;;;;;6146299;23;20453;-69
2023/03/25 00:03:28;;;;;;;4.80;1.50;;;10.20;96.60;;;;;;6145944;23;20471;-70
2023/03/25 00:05:54;;;;;;;2.03;1.00;;;10.10;97.20;;;;;;6148375;23;20372;-70
2023/03/25 00:08:21;;;;;;;3.40;1.30;;;9.80;98.60;;;;;;6148609;23;20796;-69
2023/03/25 00:10:55;;;;;;;4.20;1.27;;;9.70;99.30;;;;;;6147707;23;20411;-70
2023/03/25 00:13:22;;;;;;;2.53;1.20;;;9.60;99.90;;;;;;6110870;23;20399;-69
2023/03/25 00:15:52;;;;;;;2.40;1.13;;;9.50;99.90;;;;;;6148309;23;20419;-71
2023/03/25 00:18:19;;;;;;;2.80;1.03;;;9.40;99.90;;;;;;6151777;23;20364;-70
2023/03/25 00:20:49;;;;;;;7.20;1.63;;;9.40;99.90;;;;;;6148577;23;20463;-71
2023/03/25 00:23:18;;;;;;;3.80;1.93;;;9.50;99.90;;;;;;6087636;23;20462;-68
2023/03/25 00:25:44;;;;;;;2.27;1.30;;;9.60;99.90;;;;;;6145913;23;20380;-71
2023/03/25 00:28:14;;;;;;;1.93;1.30;;;9.60;99.90;;;;;;6146701;23;20752;-70
2023/03/25 00:30:42;;;;;;;2.30;1.23;;;9.70;99.30;;;;;;6137419;23;20176;-71
2023/03/25 00:33:12;;;;;;;5.20;1.20;;;9.80;99.20;;;;;;6145947;23;20392;-69
2023/03/25 00:35:44;;;;;;;3.63;1.03;;;9.80;98.60;;;;;;6109106;23;20372;-70
2023/03/25 00:38:11;;;;;;;3.33;1.23;;;9.80;98.20;;;;;;6134061;23;20415;-69
2023/03/25 00:40:36;;;;;;;4.13;1.40;;;9.80;97.80;;;;;;6143522;23;20525;-69
2023/03/25 00:43:04;;;;;;;3.43;1.17;;;9.80;97.50;;;;;;6109037;23;20403;-69
2023/03/25 00:45:30;;;;;;;3.40;1.17;;;9.80;97.50;;;;;;6122048;23;20196;-71
2023/03/25 00:47:56;;;;;;;4.53;1.43;;;9.80;97.40;;;;;;6147141;23;20363;-69
2023/03/25 00:50:22;;;;;;;3.67;1.30;;;9.80;97.10;;;;;;6112079;23;20482;-69
2023/03/25 00:52:48;;;;;;;7.80;2.00;;;9.80;97.10;;;;;;6110573;23;20817;-71
2023/03/25 00:55:14;;;;;;;2.93;1.20;;;9.80;97.00;;;;;;6144950;23;20467;-69
2023/03/25 00:57:39;;;;;;;4.50;1.20;;;10.00;95.60;;;;;;6136162;23;20956;-70
2023/03/25 01:00:08;;;;;;;3.00;1.10;;;10.00;95.30;;;;;;6146044;23;20368;-70
2023/03/25 01:02:35;;;;;;;4.80;1.03;;;10.00;94.90;;;;;;6147656;23;20172;-71
2023/03/25 01:05:01;;;;;;;6.20;1.00;;;10.00;94.90;;;;;;6122028;23;20392;-71
2023/03/25 01:07:32;;;;;;;3.17;1.20;;;10.00;95.20;;;;;;6146047;23;20419;-69
2023/03/25 01:09:58;;;;;;;1.70;1.00;;;10.00;95.40;;;;;;6147140;23;20360;-70
2023/03/25 01:12:25;;;;;;;2.87;1.13;;;10.00;95.30;;;;;;6108527;23;20427;-69
2023/03/25 01:14:51;;;;;;;4.83;1.27;;;10.00;95.20;;;;;;6136709;23;20818;-69
2023/03/25 01:17:20;;;;;;;4.70;1.00;;;10.00;95.30;;;;;;6111057;23;20419;-68
2023/03/25 01:19:45;;;;;;;1.47;0.73;;;10.00;95.20;;;;;;6111025;23;20788;-69
2023/03/25 01:22:12;;;;;;;3.73;1.20;;;10.00;95.50;;;;;;6148630;23;20564;-69
2023/03/25 01:24:37;;;;;;;3.10;1.23;;;10.00;95.50;;;;;;6148598;23;20388;-69
2023/03/25 01:27:03;;;;;;;2.93;1.43;;;10.00;95.40;;;;;;6110989;23;20200;-70
2023/03/25 01:29:30;;;;;;;1.87;1.20;;;10.00;95.40;;;;;;6110846;23;20223;-68
2023/03/25 01:31:56;;;;;;;6.10;1.40;;;9.90;96.00;;;;;;6111364;23;20431;-69
2023/03/25 01:34:22;;;;;;;3.43;1.13;;;9.90;95.90;;;;;;6112891;23;20390;-69
2023/03/25 01:36:48;;;;;;;3.20;0.90;;;10.00;94.70;;;;;;6147949;23;20187;-70
2023/03/25 01:39:17;;;;;;;2.80;0.90;;;10.00;94.50;;;;;;6145105;23;20380;-69
2023/03/25 01:41:45;;;;;;;2.17;0.80;;;10.00;94.60;;;;;;6121429;23;20168;-69
2023/03/25 01:44:33;;;;;;;1.70;0.80;;;10.00;94.80;;;;;;6140033;23;20848;-69
2023/03/25 01:47:02;;;;;;;3.57;0.93;;;10.00;94.90;;;;;;6113355;23;20384;-68
2023/03/25 01:49:38;;;;;;;6.00;1.30;;;10.10;94.20;;;;;;6112083;23;20438;-68
2023/03/25 01:52:25;;;;;;;2.30;0.70;;;10.00;93.80;;;;;;6113959;23;20435;-68
2023/03/25 01:54:54;;;;;;;3.00;0.97;;;10.00;93.70;;;;;;6116232;23;20373;-70
2023/03/25 01:57:22;;;;;;;2.20;1.23;;;9.90;94.40;;;;;;6117094;23;20437;-70
2023/03/25 01:59:49;;;;;;;3.40;0.93;;;10.00;94.10;;;;;;6118863;23;20369;-69
2023/03/25 02:02:17;;;;;;;3.33;1.17;;;10.00;94.30;;;;;;6085301;23;20404;-67
2023/03/25 02:04:59;;;;;;;4.57;1.60;;;10.00;96.50;;;;;;6118127;23;20409;-67
2023/03/25 02:07:32;;;;;;;3.10;1.27;;;9.70;98.20;;;;;;6113211;23;20383;-68
2023/03/25 02:10:05;;;;;;;3.73;1.17;;;9.60;99.10;;;;;;6104904;23;20677;-69
2023/03/25 02:12:31;;;;;;;4.00;1.40;;;9.50;99.90;;;;;;6106775;23;20452;-68
2023/03/25 02:14:59;;;;;;;4.03;1.60;;;9.50;99.90;;;;;;6098427;23;20451;-67
2023/03/25 02:17:53;;;;;;;2.37;1.43;;;9.40;99.90;;;;;;6073280;23;20515;-68
2023/03/25 02:20:22;;;;;;;3.40;1.90;;;9.40;99.90;;;;;;6072640;23;20412;-68
2023/03/25 02:23:27;;;;;;;2.30;1.20;;;9.20;99.90;;;;;;6106972;23;20891;-68
2023/03/25 02:26:32;;;;;;;5.30;1.10;;;9.10;99.90;;;;;;6103109;23;20375;-67
2023/03/25 02:29:14;;;;;;;3.63;1.97;;;9.00;99.90;;;;;;6139769;23;20351;-68
2023/03/25 02:32:00;;;;;;;3.90;1.17;;;9.00;99.90;;;;;;6103748;23;20505;-68
2023/03/25 02:34:45;;;;;;;1.53;0.80;;;8.80;99.90;;;;;;6104290;23;20475;-68
2023/03/25 02:37:21;;;;;;;3.50;1.13;;;8.70;99.90;;;;;;6139722;23;20466;-69
2023/03/25 02:40:06;;;;;;;2.30;0.80;;;8.50;99.90;;;;;;6139303;23;20427;-67
2023/03/25 02:42:38;;;;;;;2.53;1.00;;;8.40;99.90;;;;;;6138896;23;20684;-70
2023/03/25 02:45:13;;;;;;;6.50;1.50;;;8.30;99.90;;;;;;6128383;23;20429;-69
2023/03/25 02:47:45;;;;;;;3.87;1.03;;;8.20;99.90;;;;;;6103356;23;20385;-68
2023/03/25 02:50:22;;;;;;;1.80;1.20;;;8.20;99.90;;;;;;6138822;23;20376;-68
2023/03/25 02:52:56;;;;;;;1.50;1.00;;;8.20;99.90;;;;;;6104120;23;20446;-68
2023/03/25 02:55:24;;;;;;;1.93;1.00;;;8.10;99.90;;;;;;6104317;23;20515;-68
2023/03/25 02:57:53;;;;;;;1.23;0.73;;;8.20;99.90;;;;;;6102197;23;20374;-69
2023/03/25 03:00:25;;;;;;;1.10;0.67;;;8.10;99.90;;;;;;6141441;23;20364;-68
2023/03/25 03:02:58;;;;;;;2.60;1.10;;;8.10;99.90;;;;;;6128529;23;20399;-67
2023/03/25 03:05:24;;;;;;;5.10;2.53;;;8.10;99.90;;;;;;6139026;23;20371;-67
2023/03/25 03:08:25;;;;;;;2.37;1.10;;;8.20;99.90;;;;;;6142972;23;20452;-68
2023/03/25 03:11:11;;;;;;;3.50;1.13;;;8.20;99.90;;;;;;6144090;23;20537;-68
2023/03/25 03:13:59;;;;;;;4.43;1.43;;;8.30;99.90;;;;;;6140857;23;20388;-69
2023/03/25 03:16:34;;;;;;;5.97;1.70;;;8.30;99.90;;;;;;6146953;23;20419;-71
2023/03/25 03:19:07;;;;;;;3.30;1.20;;;8.30;99.90;;;;;;6108190;23;20375;-68
2023/03/25 03:21:50;;;;;;;3.17;1.40;;;8.40;99.90;;;;;;6143692;23;20402;-69
2023/03/25 03:24:30;;;;;;;2.73;1.10;;;8.40;99.90;;;;;;6143485;23;20458;-67
2023/03/25 03:27:04;;;;;;;4.70;1.10;;;8.50;99.90;;;;;;6132855;23;20509;-68
2023/03/25 03:29:59;;;;;;;3.00;1.17;;;8.50;99.90;;;;;;6143797;23;20398;-69
2023/03/25 03:32:52;;;;;;;5.03;1.83;;;8.50;99.90;;;;;;6129321;23;20435;-69
2023/03/25 03:35:40;;;;;;;3.10;1.40;;;8.50;99.90;;;;;;6135028;23;20402;-70
2023/03/25 03:38:10;;;;;;;3.37;1.23;;;8.60;99.90;;;;;;6143242;23;20452;-68
2023/03/25 03:40:39;;;;;;;7.27;1.50;;;8.60;99.90;;;;;;6142563;23;20374;-68
2023/03/25 03:43:15;;;;;;;6.00;1.67;;;8.60;99.90;;;;;;6141276;23;20415;-68
2023/03/25 03:45:47;;;;;;;5.23;1.30;;;8.60;99.90;;;;;;6144270;23;20800;-68
2023/03/25 03:48:22;;;;;;;4.80;1.43;;;8.70;99.90;;;;;;6135848;23;20702;-66
2023/03/25 03:51:08;;;;;;;2.13;1.10;;;8.70;99.90;;;;;;6144148;23;20675;-67
2023/03/25 03:53:49;;;;;;;5.67;1.47;;;8.70;99.90;;;;;;6143602;23;20431;-68
2023/03/25 03:56:37;;;;;;;5.20;1.77;;;8.70;99.90;;;;;;6144687;23;20803;-69
2023/03/25 03:59:38;;;;;;;4.17;1.73;;;8.60;99.90;;;;;;6134603;23;20391;-68
2023/03/25 04:02:22;;;;;;;3.90;1.43;;;8.50;99.90;;;;;;6144597;23;20406;-69
2023/03/25 04:04:48;;;;;;;2.70;1.07;;;8.50;99.90;;;;;;6144538;23;20641;-70
2023/03/25 04:07:18;;;;;;;5.30;1.20;;;8.50;99.90;;;;;;6133175;23;20383;-67
2023/03/25 04:09:55;;;;;;;3.07;1.00;;;8.60;99.90;;;;;;6145113;23;20376;-69
2023/03/25 04:12:26;;;;;;;5.80;1.53;;;8.70;99.90;;;;;;6143901;23;20458;-68
2023/03/25 04:14:54;;;;;;;3.70;1.10;;;8.70;99.90;;;;;;6132417;23;20656;-67
2023/03/25 04:17:20;;;;;;;2.70;1.10;;;8.80;99.90;;;;;;6141995;23;20469;-68
2023/03/25 04:19:47;;;;;;;4.43;1.60;;;8.80;99.90;;;;;;6142641;23;20372;-68
2023/03/25 04:22:16;;;;;;;2.43;1.13;;;8.90;99.90;;;;;;6142459;23;20846;-67
2023/03/25 04:24:42;;;;;;;4.13;1.20;;;8.90;99.90;;;;;;6144989;23;20402;-69
2023/03/25 04:27:12;;;;;;;4.03;1.10;;;8.90;99.90;;;;;;6144481;23;20475;-71
2023/03/25 04:29:39;;;;;;;4.20;1.60;;;8.80;99.90;;;;;;6144328;23;20427;-67
2023/03/25 04:32:05;;;;;;;8.10;1.70;;;8.90;99.90;;;;;;6141503;23;20835;-69
2023/03/25 04:34:31;;;;;;;6.03;1.33;;;8.90;99.90;;;;;;6143561;23;20403;-68
2023/03/25 04:36:57;;;;;;;2.90;1.13;;;8.90;99.90;;;;;;6142295;23;20404;-70
2023/03/25 04:39:23;;;;;;;4.20;1.50;;;8.90;99.90;;;;;;6133695;23;20368;-68
2023/03/25 04:41:55;;;;;;;5.30;1.70;;;8.90;99.90;;;;;;6141559;23;20409;-67
2023/03/25 04:44:24;;;;;;;4.00;1.43;;;8.90;99.90;;;;;;6134902;23;20469;-68
2023/03/25 04:46:51;;;;;;;2.63;1.20;;;8.90;99.90;;;;;;6143146;23;20372;-67
2023/03/25 04:49:19;;;;;;;4.97;1.13;;;8.90;99.90;;;;;;6143381;23;20371;-66
2023/03/25 04:51:50;;;;;;;7.13;1.47;;;9.00;99.90;;;;;;6145478;23;20485;-66
2023/03/25 04:54:17;;;;;;;7.63;2.53;;;9.00;99.90;;;;;;6141288;23;20787;-68
2023/03/25 04:56:43;;;;;;;5.13;1.50;;;9.00;99.90;;;;;;6141030;23;20367;-68
2023/03/25 04:59:09;;;;;;;2.20;1.43;;;9.00;99.90;;;;;;6141198;23;20418;-68
2023/03/25 05:01:40;;;;;;;2.80;1.10;;;9.00;99.90;;;;;;6141772;23;20171;-67
2023/03/25 05:04:07;;;;;;;2.80;1.43;;;9.10;99.80;;;;;;6140909;23;20376;-68
2023/03/25 05:06:55;;;;;;;3.60;0.90;;;9.20;99.60;;;;;;6142380;23;20368;-67
2023/03/25 05:09:21;;;;;;;2.40;1.00;;;9.10;99.80;;;;;;6110015;23;20385;-68
2023/03/25 05:11:48;;;;;;;4.20;1.47;;;9.10;99.70;;;;;;6109308;23;20424;-68
2023/03/25 05:14:17;;;;;;;2.43;1.30;;;9.20;99.90;;;;;;6104782;23;20377;-71
2023/03/25 05:16:44;;;;;;;4.43;1.13;;;9.20;99.60;;;;;;6085457;23;20686;-68
2023/03/25 05:19:09;;;;;;;4.93;1.37;;;9.20;99.00;;;;;;6110511;23;20572;-68
2023/03/25 05:21:37;;;;;;;7.80;1.53;;;9.20;98.40;;;;;;6110618;23;20405;-68
2023/03/25 05:24:09;;;;;;;4.13;1.20;;;9.30;98.00;;;;;;6110760;23;20148;-68
2023/03/25 05:26:38;;;;;;;6.73;1.80;;;9.30;97.60;;;;;;6110446;23;20394;-68
2023/03/25 05:29:14;;;;;;;5.57;1.20;;;9.20;97.60;;;;;;6089111;23;20735;-69
2023/03/25 05:31:44;;;;;;;3.50;1.30;;;9.30;97.60;;;;;;6114390;23;20506;-67
2023/03/25 05:34:13;;;;;;;5.77;1.77;;;9.30;97.40;;;;;;6113634;23;20401;-67
2023/03/25 05:36:38;;;;;;;4.30;1.50;;;9.40;97.00;;;;;;6111157;23;20379;-68
2023/03/25 05:39:04;;;;;;;4.23;1.47;;;9.40;96.40;;;;;;6112072;23;20384;-67
2023/03/25 05:41:37;;;;;;;5.70;1.83;;;9.40;96.70;;;;;;6087985;23;20172;-69
2023/03/25 05:44:07;;;;;;;6.10;1.33;;;9.40;97.20;;;;;;6104417;23;20202;-68
2023/03/25 05:46:33;;;;;;;5.83;1.57;;;9.40;96.60;;;;;;6133027;23;20391;-69
2023/03/25 05:48:59;;;;;;;4.40;1.10;;;9.50;96.20;;;;;;6146681;23;20379;-67
2023/03/25 05:51:26;;;;;;;2.80;1.13;;;9.50;96.40;;;;;;6146066;23;20423;-68
2023/03/25 05:53:52;;;;;;;7.20;1.40;;;9.50;96.30;;;;;;6146570;23;20410;-67
2023/03/25 05:56:21;;;;;;;4.10;1.70;;;9.50;96.10;;;;;;6145451;23;20367;-67
2023/03/25 05:58:49;;;;;;;5.40;1.50;;;9.50;96.30;;;;;;6146004;23;20136;-68
2023/03/25 06:01:16;;;;;;;6.60;1.67;;;9.50;96.30;;;;;;6148660;23;20396;-67
2023/03/25 06:03:43;;;;;;;7.23;1.53;;;9.60;95.60;;;;;;6144495;23;20396;-68
2023/03/25 06:06:12;;;;;;;5.20;1.13;;;9.70;95.40;;;;;;6113365;23;20792;-68
2023/03/25 06:08:48;;;;;;;4.10;1.30;;;9.60;95.00;;;;;;6148194;23;20372;-67
2023/03/25 06:11:15;;;;;;;4.60;1.37;;;9.60;95.50;;;;;;6144452;23;20458;-69
2023/03/25 06:13:48;;;;;;;5.57;1.30;;;9.60;95.70;;;;;;6142015;23;20394;-68
2023/03/25 06:16:19;;;;;;;8.20;1.73;;;9.70;94.80;;;;;;6135899;23;20784;-69
2023/03/25 06:18:49;;;;;;;5.73;1.33;;;9.70;94.80;;;;;;6137297;23;20629;-70
2023/03/25 06:21:19;;;;;;;4.30;1.30;;;9.70;94.90;;;;;;6149343;23;20399;-67
2023/03/25 06:23:48;;;;;;;7.60;2.63;;;9.60;95.20;;;;;;6128229;23;20390;-67
2023/03/25 06:26:14;;;;;;;5.27;1.90;;;9.60;95.40;;;;;;6153473;23;20390;-67
2023/03/25 06:28:42;;;;;;;3.87;1.80;;;9.70;95.00;;;;;;6155617;23;20392;-70
2023/03/25 06:31:22;;;;;;;2.63;1.50;;;9.70;94.90;;;;;;6153789;23;20533;-71
2023/03/25 06:33:49;;;;;;;5.03;2.07;;;9.70;94.80;;;;;;6118117;23;20394;-71
2023/03/25 06:36:17;;;;;;;6.87;1.50;;;9.80;94.00;;;;;;6112905;23;20379;-67
2023/03/25 06:38:45;;;;;;;11.40;1.90;;;9.80;94.00;;;;;;6144866;23;20391;-69
2023/03/25 06:41:14;;;;;;;7.10;2.00;;;9.80;93.70;;;;;;6110532;23;20403;-67
2023/03/25 06:43:41;;;;;;;4.20;1.23;;;9.90;92.80;;;;;;6109281;23;20403;-68
2023/03/25 06:46:28;;;;;;;4.93;1.73;;;10.00;91.70;;;;;;6108683;23;20446;-68
2023/03/25 06:49:09;;;;;;;4.67;1.83;;;10.10;90.90;;;;;;6133207;23;20383;-68
2023/03/25 06:51:35;;;;;;;4.27;1.20;;;10.10;91.40;;;;;;6144191;23;20425;-69
2023/03/25 06:54:00;;;;;;;7.70;1.40;;;10.20;91.00;;;;;;6144200;23;20689;-67
2023/03/25 06:56:26;;;;;;;8.33;1.77;;;10.30;90.60;;;;;;6142891;23;20409;-69
2023/03/25 06:58:51;;;;;;;7.20;1.53;;;10.40;90.10;;;;;;6144336;23;20144;-69
2023/03/25 07:01:17;;;;;;;4.43;1.50;;;10.40;89.40;;;;;;6144808;23;20172;-69
2023/03/25 07:03:43;;;;;;;4.77;1.50;;;10.40;90.00;;;;;;6146713;23;20148;-70
2023/03/25 07:06:18;;;;;;;6.57;1.87;;;10.30;91.60;;;;;;6146750;23;20144;-68
2023/03/25 07:08:44;;;;;;;6.90;1.70;;;10.20;94.50;;;;;;6110402;23;20152;-68
2023/03/25 07:11:11;;;;;;;5.47;2.00;;;10.10;97.40;;;;;;6145318;23;20499;-70
2023/03/25 07:13:37;;;;;;;4.33;1.50;;;9.90;98.70;;;;;;6143484;23;20156;-70
2023/03/25 07:16:03;;;;;;;5.20;1.30;;;9.80;99.50;;;;;;6145283;23;20768;-67
2023/03/25 07:18:28;;;;;;;4.77;1.30;;;9.80;99.90;;;;;;6119471;23;20143;-70
2023/03/25 07:20:54;;;;;;;5.83;1.30;;;9.80;99.90;;;;;;6143867;23;20137;-68
2023/03/25 07:23:20;;;;;;;5.00;1.33;;;9.80;99.90;;;;;;6144454;23;20218;-69
2023/03/25 07:25:45;;;;;;;4.10;0.97;;;9.90;99.90;;;;;;6146275;23;20140;-69
2023/03/25 07:28:11;;;;;;;6.90;1.30;;;10.00;99.90;;;;;;6145578;23;20170;-68
2023/03/25 07:30:42;;;;;;;5.37;1.23;;;10.10;99.30;;;;;;6133971;23;20168;-70
2023/03/25 07:33:08;;;;;;;3.83;1.40;;;10.30;99.20;;;;;;6144873;23;20868;-70
2023/03/25 07:35:34;;;;;;;3.70;1.30;;;10.50;97.50;;;;;;6144983;23;20132;-67
2023/03/25 07:37:59;;;;;;;3.40;1.67;;;10.50;97.40;;;;;;6144477;23;20143;-70
2023/03/25 07:40:25;;;;;;;5.40;1.57;;;10.70;96.10;;;;;;6145240;23;20144;-69
2023/03/25 07:42:50;;;;;;;4.30;1.20;;;10.70;96.30;;;;;;6144502;23;20238;-68
2023/03/25 07:45:34;;;;;;;4.80;1.17;;;10.60;96.30;;;;;;6110077;23;20418;-69
2023/03/25 07:48:01;;;;;;;3.93;1.30;;;10.60;95.60;;;;;;6145507;23;20502;-69
2023/03/25 07:50:26;;;;;;;4.57;1.17;;;10.50;96.00;;;;;;6147505;23;20368;-69
2023/03/25 07:52:53;;;;;;;1.53;0.97;;;10.40;96.00;;;;;;6146053;23;20419;-69
2023/03/25 07:55:18;;;;;;;3.40;1.00;;;10.40;96.10;;;;;;6111464;23;20424;-71
2023/03/25 07:57:44;;;;;;;4.33;1.23;;;10.30;96.40;;;;;;6147253;23;20375;-68
2023/03/25 08:00:10;;;;;;;4.57;1.30;;;10.30;96.50;;;;;;6147034;23;20155;-69
2023/03/25 08:02:40;;;;;;;3.40;1.30;;;10.40;96.00;;;;;;6112542;23;20466;-70
2023/03/25 08:05:06;;;;;;;5.03;1.00;;;10.50;95.50;;;;;;6146575;23;20642;-72
2023/03/25 08:07:32;;;;;;;3.47;1.83;;;10.60;95.60;;;;;;6147089;23;20375;-71
2023/03/25 08:09:58;;;;;;;3.20;1.37;;;10.50;95.00;;;;;;6147050;23;20399;-71
2023/03/25 08:12:23;;;;;;;3.40;1.50;;;10.60;95.10;;;;;;6147762;23;20179;-71
2023/03/25 08:14:50;;;;;;;3.67;1.60;;;10.50;95.20;;;;;;6138797;23;20155;-70
2023/03/25 08:17:17;;;;;;;3.50;1.37;;;10.60;94.50;;;;;;6144036;23;20239;-69
2023/03/25 08:19:42;;;;;;;6.33;1.30;;;10.50;94.50;;;;;;6148064;23;20371;-68
2023/03/25 08:22:08;;;;;;;8.40;1.23;;;10.60;94.20;;;;;;6138199;23;20407;-70
2023/03/25 08:24:33;;;;;;;3.37;1.20;;;10.60;93.70;;;;;;6146802;23;20140;-69
2023/03/25 08:27:02;;;;;;;7.00;1.40;;;10.60;94.30;;;;;;6145945;23;20172;-69
2023/03/25 08:29:28;;;;;;;2.33;1.10;;;10.70;93.80;;;;;;6146991;23;20211;-69
2023/03/25 08:31:54;;;;;;;6.47;1.60;;;10.90;93.30;;;;;;6146975;23;20431;-69
2023/03/25 08:34:21;;;;;;;10.30;1.50;;;11.20;91.10;;;;;;6147585;23;20381;-69
2023/03/25 08:36:47;;;;;;;5.43;2.00;;;11.60;85.20;;;;;;6147869;23;20395;-71
2023/03/25 08:39:16;;;;;;;6.33;1.50;;;11.80;87.10;;;;;;6151937;23;20388;-71
2023/03/25 08:41:42;;;;;;;6.27;1.50;;;12.20;78.10;;;;;;6150284;23;20715;-70
2023/03/25 08:44:08;;;;;;;7.10;1.70;;;12.10;77.40;;;;;;6144229;23;20388;-70
2023/03/25 08:46:35;;;;;;;7.57;1.50;;;12.00;76.60;;;;;;6149975;23;20369;-71
2023/03/25 08:49:00;;;;;;;5.50;1.63;;;11.80;77.50;;;;;;6150366;23;20375;-71
2023/03/25 08:51:26;;;;;;;11.33;3.70;;;11.80;79.80;;;;;;6116952;23;20432;-72
2023/03/25 08:53:52;;;;;;;4.17;1.87;;;11.80;77.40;;;;;;6147534;23;20220;-71
2023/03/25 08:56:19;;;;;;;4.70;2.03;;;11.90;80.40;;;;;;6148972;23;20167;-71
2023/03/25 08:58:45;;;;;;;5.33;1.77;;;11.90;77.30;;;;;;6090772;23;20179;-69
2023/03/25 09:01:10;;;;;;;7.40;1.50;;;11.90;75.30;;;;;;6149972;23;20408;-70
2023/03/25 09:03:39;;;;;;;3.67;1.33;;;11.80;75.90;;;;;;6149239;23;20147;-70
2023/03/25 09:06:06;;;;;;;13.03;2.50;;;11.80;75.20;;;;;;6149066;23;20147;-71
2023/03/25 09:08:32;;;;;;;9.40;2.57;;;11.70;71.80;;;;;;6149423;23;20403;-70
2023/03/25 09:10:59;;;;;;;7.20;1.80;;;11.60;73.60;;;;;;6148844;23;20498;-70
2023/03/25 09:13:25;;;;;;;5.57;2.10;;;11.60;74.40;;;;;;6149755;23;20136;-73
2023/03/25 09:15:50;;;;;;;5.37;1.50;;;11.50;75.20;;;;;;6113972;23;20444;-72
2023/03/25 09:18:18;;;;;;;4.53;1.50;;;11.30;76.30;;;;;;6113328;23;20391;-72
2023/03/25 09:20:47;;;;;;;6.50;2.20;;;11.20;73.20;;;;;;6119632;23;20187;-72
2023/03/25 09:23:14;;;;;;;8.53;2.50;;;11.30;74.30;;;;;;6128793;23;20455;-70
2023/03/25 09:25:43;;;;;;;4.93;2.30;;;11.40;73.00;;;;;;6143648;23;20175;-73
2023/03/25 09:28:08;;;;;;;8.33;1.80;;;11.30;71.90;;;;;;6119462;23;20388;-73
2023/03/25 09:30:34;;;;;;;4.93;1.77;;;11.40;73.00;;;;;;6117644;23;20392;-71
2023/03/25 09:33:00;;;;;;;6.73;1.73;;;11.40;74.10;;;;;;6155046;23;20160;-71
2023/03/25 09:35:26;;;;;;;5.03;1.90;;;11.50;72.70;;;;;;6152161;23;20140;-70
2023/03/25 09:37:51;;;;;;;8.70;2.20;;;11.60;72.40;;;;;;6117296;23;20793;-72
2023/03/25 09:40:20;;;;;;;8.07;2.43;;;11.70;71.90;;;;;;6117106;23;20178;-72
2023/03/25 09:43:02;;;;;;;4.33;1.63;;;11.90;69.70;;;;;;6117585;23;20183;-71
2023/03/25 09:45:48;;;;;;;4.53;1.60;;;12.00;67.40;;;;;;6144184;23;20370;-70
2023/03/25 09:48:42;;;;;;;8.10;1.90;;;12.00;67.50;;;;;;6120945;23;20418;-73
2023/03/25 09:51:17;;;;;;;9.83;2.40;;;12.10;66.70;;;;;;6068278;23;20451;-71
2023/03/25 09:54:03;;;;;;;8.50;1.83;;;12.10;65.00;;;;;;6100248;23;20433;-73
2023/03/25 09:56:34;;;;;;;5.80;1.50;;;12.10;66.50;;;;;;6121758;23;20414;-72
2023/03/25 09:59:18;;;;;;;9.97;2.23;;;12.30;66.10;;;;;;6062264;23;20417;-73
2023/03/25 10:02:01;;;;;;;4.63;1.83;;;12.60;63.40;;;;;;6120628;23;20424;-72
2023/03/25 10:04:51;;;;;;;7.07;2.33;;;12.70;62.80;;;;;;6061731;23;20389;-70
2023/03/25 10:07:56;;;;;;;4.30;1.50;;;12.70;63.30;;;;;;6085720;23;20491;-72
2023/03/25 10:10:38;;;;;;;9.33;2.20;;;12.70;62.30;;;;;;6120004;23;20370;-70
2023/03/25 10:13:35;;;;;;;10.87;1.97;;;12.60;63.50;;;;;;6062675;23;20873;-72
2023/03/25 10:16:31;;;;;;;6.13;2.03;;;12.40;65.10;;;;;;6103352;23;20420;-72
2023/03/25 10:19:22;;;;;;;8.13;2.23;;;12.40;66.00;;;;;;6120493;23;20398;-71
2023/03/25 10:22:01;;;;;;;5.57;1.67;;;12.30;64.60;;;;;;6081576;23;20393;-72
2023/03/25 10:24:57;;;;;;;8.30;2.00;;;12.20;65.50;;;;;;6088314;23;20388;-73
2023/03/25 10:27:40;;;;;;;10.23;2.23;;;12.30;65.10;;;;;;6096045;23;20386;-72
2023/03/25 10:30:13;;;;;;;5.77;1.70;;;12.40;66.70;;;;;;6153898;23;20368;-72
2023/03/25 10:32:43;;;;;;;6.67;1.80;;;12.50;69.20;;;;;;6129108;23;20423;-73
2023/03/25 10:35:41;;;;;;;4.80;1.70;;;12.40;72.30;;;;;;6118264;23;20454;-71
2023/03/25 10:38:12;;;;;;;6.87;1.87;;;12.80;70.40;;;;;;6150843;23;20384;-72
2023/03/25 10:40:43;;;;;;;5.90;2.10;;;13.10;69.90;;;;;;6121667;23;20389;-72
2023/03/25 10:43:33;;;;;;;6.07;2.20;;;13.40;66.80;;;;;;6154703;23;20400;-73
2023/03/25 10:46:12;;;;;;;6.50;2.23;;;13.70;66.10;;;;;;6128773;23;20448;-70
2023/03/25 10:48:38;;;;;;;9.30;2.70;;;13.90;64.20;;;;;;6131107;23;20367;-72
2023/03/25 10:51:16;;;;;;;6.53;2.07;;;14.10;60.50;;;;;;6117724;23;20429;-72
2023/03/25 10:53:46;;;;;;;6.37;1.50;;;14.20;58.70;;;;;;6117573;23;20564;-72
2023/03/25 10:56:32;;;;;;;5.60;1.93;;;14.30;58.20;;;;;;6153257;23;20379;-72
2023/03/25 10:59:01;;;;;;;9.40;2.60;;;14.30;57.70;;;;;;6159483;23;20388;-70
2023/03/25 11:01:36;;;;;;;10.43;4.30;;;14.20;57.40;;;;;;6157864;23;20407;-73
2023/03/25 11:04:06;;;;;;;14.60;3.53;;;14.10;56.70;;;;;;6146929;23;20413;-73
2023/03/25 11:06:40;;;;;;;4.00;1.90;;;13.80;57.90;;;;;;6102163;23;20423;-71
2023/03/25 11:09:31;;;;;;;18.97;3.10;;;13.50;68.50;;;;;;6122194;23;20396;-72
2023/03/25 11:12:03;;;;;;;6.30;2.37;;;13.20;75.00;;;;;;6093578;23;20428;-73
2023/03/25 11:14:29;;;;;;;8.93;2.60;;;13.10;72.50;;;;;;6099187;23;20482;-72
2023/03/25 11:17:04;;;;;;;5.57;1.97;;;12.80;70.00;;;;;;6075096;23;20894;-72
2023/03/25 11:19:40;;;;;;;7.70;2.70;;;13.00;73.00;;;;;;6060534;23;20381;-71
2023/03/25 11:22:17;;;;;;;8.00;1.77;;;13.20;68.00;;;;;;6092291;23;20422;-71
2023/03/25 11:24:47;;;;;;;5.60;1.83;;;13.20;66.90;;;;;;6090890;23;20394;-73
2023/03/25 11:27:43;;;;;;;7.87;2.43;;;13.30;69.20;;;;;;6089539;23;20411;-72
2023/03/25 11:30:22;;;;;;;7.03;2.13;;;13.40;67.10;;;;;;6065042;23;20735;-72
2023/03/25 11:33:05;;;;;;;5.70;2.37;;;13.50;62.30;;;;;;6096405;23;20467;-74
2023/03/25 11:35:36;;;;;;;7.00;1.93;;;13.70;62.10;;;;;;6062523;23;20397;-73
2023/03/25 11:38:24;;;;;;;9.50;2.37;;;14.10;59.90;;;;;;6084033;23;20388;-72
2023/03/25 11:40:59;;;;;;;11.13;2.17;;;14.30;58.30;;;;;;6093888;23;20397;-72
2023/03/25 11:43:32;;;;;;;4.13;1.53;;;14.20;58.20;;;;;;6094029;23;20438;-71
2023/03/25 11:46:07;;;;;;;4.67;1.73;;;14.20;57.50;;;;;;6126833;23;20372;-73
2023/03/25 11:48:37;;;;;;;5.23;1.43;;;14.20;56.60;;;;;;6115621;23;20423;-72
2023/03/25 11:51:10;;;;;;;6.10;1.90;;;14.10;55.70;;;;;;6138689;23;20412;-73
2023/03/25 11:53:36;;;;;;;7.33;1.87;;;14.10;55.60;;;;;;6128916;23;20381;-72
2023/03/25 11:56:06;;;;;;;6.07;1.97;;;14.40;54.50;;;;;;6088847;23;20674;-71
2023/03/25 11:58:37;;;;;;;5.77;1.63;;;14.20;53.80;;;;;;6141385;23;20172;-73
2023/03/25 12:01:16;;;;;;;7.80;1.77;;;14.40;54.60;;;;;;6145839;23;20377;-73
2023/03/25 12:03:48;;;;;;;5.73;1.93;;;14.40;53.90;;;;;;6126567;23;20373;-72
2023/03/25 12:06:21;;;;;;;4.93;2.13;;;14.30;54.60;;;;;;6137618;23;20396;-71
2023/03/25 12:08:51;;;;;;;4.40;1.37;;;14.20;54.80;;;;;;6124797;23;20387;-73
2023/03/25 12:12:03;;;;;;;4.93;1.80;;;14.10;54.50;;;;;;6119298;23;20436;-72
2023/03/25 12:14:37;;;;;;;7.03;2.83;;;14.10;55.00;;;;;;6064823;23;20385;-72
2023/03/25 12:17:35;;;;;;;4.53;1.53;;;13.90;54.80;;;;;;6113170;23;20510;-71
2023/03/25 12:20:17;;;;;;;6.00;2.27;;;14.10;55.60;;;;;;6128747;23;20365;-72
2023/03/25 12:22:54;;;;;;;7.37;2.23;;;14.10;53.50;;;;;;6093314;23;20444;-73
2023/03/25 12:25:40;;;;;;;9.87;2.17;;;14.10;53.70;;;;;;6127215;23;20380;-72
2023/03/25 12:28:50;;;;;;;4.73;1.73;;;14.20;54.00;;;;;;6101763;23;20380;-73
2023/03/25 12:31:16;;;;;;;8.70;2.40;;;14.30;54.00;;;;;;6079163;23;20559;-72
2023/03/25 12:33:45;;;;;;;9.50;2.47;;;14.70;53.10;;;;;;6125619;23;20376;-72
2023/03/25 12:36:30;;;;;;;5.30;2.43;;;14.70;52.40;;;;;;6068955;23;20148;-72
2023/03/25 12:39:02;;;;;;;9.40;2.60;;;14.50;51.80;;;;;;6092883;23;20404;-73
2023/03/25 12:41:57;;;;;;;6.93;1.80;;;14.70;51.50;;;;;;6117281;23;20443;-72
2023/03/25 12:44:39;;;;;;;7.10;2.10;;;14.90;51.40;;;;;;6092324;23;20420;-72
2023/03/25 12:47:41;;;;;;;10.57;1.93;;;15.10;50.80;;;;;;6093355;23;20372;-73
2023/03/25 12:50:30;;;;;;;8.90;1.80;;;15.10;50.70;;;;;;6094738;23;20367;-72
2023/03/25 12:53:27;;;;;;;6.53;2.20;;;15.30;50.20;;;;;;6098233;23;20432;-72
2023/03/25 12:56:02;;;;;;;5.60;1.83;;;15.50;49.60;;;;;;6111650;23;20694;-73
2023/03/25 12:58:28;;;;;;;4.10;1.90;;;15.60;49.40;;;;;;6088955;23;20380;-72
2023/03/25 13:01:02;;;;;;;7.47;2.93;;;15.60;49.20;;;;;;6113771;23;20357;-72
2023/03/25 13:03:48;;;;;;;11.37;2.27;;;15.50;48.20;;;;;;6089527;23;20156;-73
2023/03/25 13:06:45;;;;;;;5.70;1.63;;;15.30;48.50;;;;;;6090332;23;20391;-72
2023/03/25 13:09:40;;;;;;;8.63;2.47;;;15.20;49.60;;;;;;6128666;23;20376;-72
2023/03/25 13:12:31;;;;;;;7.23;1.60;;;15.40;49.20;;;;;;6092819;23;20431;-73
2023/03/25 13:15:05;;;;;;;5.40;1.63;;;15.40;49.50;;;;;;6119558;23;20377;-73
2023/03/25 13:17:47;;;;;;;3.63;1.90;;;15.30;49.70;;;;;;6114150;23;20422;-72
2023/03/25 13:20:16;;;;;;;5.90;1.80;;;15.20;49.50;;;;;;6158037;23;20379;-71